createdAt,value
2023-07-30T00:02:10.777Z,83.75
2023-07-30T00:05:37.097Z,84.45
2023-07-30T00:09:33.379Z,84.12
2023-07-30T00:12:58.352Z,84.11
2023-07-30T00:16:35.842Z,84.68
2023-07-30T00:20:13.913Z,84.68
2023-07-30T00:23:52.559Z,85.11
2023-07-30T00:27:47.747Z,86.06
2023-07-30T00:31:13.898Z,86.14
2023-07-30T00:34:51.494Z,86.22
2023-07-30T00:38:29.096Z,86.23
2023-07-30T00:42:26.146Z,85.89
2023-07-30T00:45:51.835Z,85.57
2023-07-30T00:49:29.575Z,85.49
2023-07-30T00:53:09.987Z,85.53
2023-07-30T00:56:54.302Z,85.68
2023-07-30T01:00:23.473Z,86.04
2023-07-30T01:04:02.238Z,86.23
2023-07-30T01:07:37.724Z,86.52
2023-07-30T01:11:16.077Z,87.00
2023-07-30T01:14:55.888Z,86.86
2023-07-30T01:18:30.856Z,86.58
2023-07-30T01:22:08.435Z,86.45
2023-07-30T01:25:48.745Z,86.51
2023-07-30T01:29:29.145Z,86.67
2023-07-30T01:33:21.839Z,86.80
2023-07-30T01:36:49.021Z,86.83
2023-07-30T01:40:26.832Z,86.87
2023-07-30T01:44:03.081Z,86.62
2023-07-30T01:47:40.793Z,86.76
2023-07-30T01:51:18.509Z,87.41
2023-07-30T01:55:15.302Z,87.77
2023-07-30T01:58:40.614Z,87.85
2023-07-30T02:02:37.183Z,88.08
2023-07-30T02:06:03.901Z,88.46
2023-07-30T02:09:41.446Z,88.97
2023-07-30T02:13:20.354Z,88.93
2023-07-30T02:16:56.750Z,89.47
2023-07-30T02:20:34.500Z,89.54
2023-07-30T02:24:12.912Z,90.01
2023-07-30T02:27:49.682Z,89.99
2023-07-30T02:31:28.740Z,90.23
2023-07-30T02:35:05.753Z,90.71
2023-07-30T02:38:43.183Z,91.27
2023-07-30T02:42:21.841Z,90.94
2023-07-30T02:46:00.291Z,91.47
2023-07-30T02:49:55.864Z,92.05
2023-07-30T02:53:20.619Z,92.15
2023-07-30T02:56:59.480Z,91.74
2023-07-30T03:00:41.525Z,92.15
2023-07-30T03:04:14.150Z,91.93
2023-07-30T03:08:11.252Z,91.84
2023-07-30T03:11:36.926Z,92.06
2023-07-30T03:15:14.635Z,92.08
2023-07-30T03:18:51.989Z,91.96
2023-07-30T03:22:29.680Z,91.80
2023-07-30T03:26:07.268Z,91.77
2023-07-30T03:29:45.514Z,91.62
2023-07-30T03:33:46.483Z,91.48
2023-07-30T03:37:12.475Z,91.29
2023-07-30T03:40:50.641Z,90.95
2023-07-30T03:44:28.034Z,90.52
2023-07-30T03:48:05.629Z,90.45
2023-07-30T03:51:43.082Z,90.65
2023-07-30T03:55:20.628Z,91.03
2023-07-30T03:58:58.312Z,91.04
2023-07-30T04:02:36.095Z,90.96
2023-07-30T04:06:13.865Z,91.20
2023-07-30T04:09:51.357Z,91.59
2023-07-30T04:13:29.641Z,91.75
2023-07-30T04:17:25.649Z,91.69
2023-07-30T04:20:51.546Z,91.73
2023-07-30T04:24:28.314Z,92.10
2023-07-30T04:28:24.981Z,92.13
2023-07-30T04:31:50.080Z,91.83
2023-07-30T04:35:46.740Z,91.74
2023-07-30T04:39:13.567Z,91.52
2023-07-30T04:42:49.524Z,91.66
2023-07-30T04:46:45.925Z,91.90
2023-07-30T04:50:10.879Z,92.04
2023-07-30T04:53:48.544Z,91.73
2023-07-30T04:57:26.940Z,91.47
2023-07-30T05:01:03.829Z,91.20
2023-07-30T05:05:00.655Z,91.05
2023-07-30T05:08:25.381Z,91.05
2023-07-30T05:12:03.324Z,90.98
2023-07-30T05:15:59.628Z,90.92
2023-07-30T05:19:24.622Z,90.84
2023-07-30T05:23:03.458Z,90.34
2023-07-30T05:26:39.869Z,89.89
2023-07-30T05:30:36.352Z,89.54
2023-07-30T05:34:01.625Z,89.60
2023-07-30T05:37:57.989Z,89.56
2023-07-30T05:41:22.948Z,89.25
2023-07-30T05:45:00.940Z,88.81
2023-07-30T05:48:57.729Z,88.39
2023-07-30T05:52:41.936Z,88.10
2023-07-30T05:56:07.136Z,88.00
2023-07-30T05:59:44.785Z,87.92
2023-07-30T06:03:22.649Z,87.43
2023-07-30T06:07:05.999Z,86.85
2023-07-30T06:10:39.310Z,86.70
2023-07-30T06:14:15.594Z,85.72
2023-07-30T06:17:53.432Z,86.09
2023-07-30T06:21:30.714Z,85.44
2023-07-30T06:25:08.607Z,85.43
2023-07-30T06:28:46.073Z,85.48
2023-07-30T06:32:24.930Z,85.01
2023-07-30T06:36:01.614Z,84.40
2023-07-30T06:39:57.963Z,84.25
2023-07-30T06:43:22.827Z,84.58
2023-07-30T06:47:01.060Z,84.10
2023-07-30T06:50:38.328Z,83.43
2023-07-30T06:54:35.936Z,82.84
2023-07-30T06:58:02.040Z,82.93
2023-07-30T07:01:39.727Z,82.74
2023-07-30T07:05:17.199Z,82.24
2023-07-30T07:08:55.159Z,81.41
2023-07-30T07:12:51.393Z,80.46
2023-07-30T07:16:16.470Z,80.47
2023-07-30T07:19:54.149Z,79.93
2023-07-30T07:23:50.699Z,79.30
2023-07-30T07:27:15.590Z,78.82
2023-07-30T07:30:53.189Z,78.76
2023-07-30T07:34:30.882Z,78.54
2023-07-30T07:38:08.812Z,78.32
2023-07-30T07:41:46.225Z,78.51
2023-07-30T07:45:42.850Z,77.96
2023-07-30T07:49:09.749Z,77.28
2023-07-30T07:52:45.006Z,76.42
2023-07-30T07:56:22.848Z,76.40
2023-07-30T08:00:00.531Z,75.95
2023-07-30T08:03:38.264Z,75.38
2023-07-30T08:07:16.026Z,74.58
2023-07-30T08:10:54.273Z,72.54
2023-07-30T08:14:32.393Z,73.56
2023-07-30T08:18:09.622Z,73.79
2023-07-30T08:21:46.714Z,71.88
2023-07-30T08:25:24.275Z,72.19
2023-07-30T08:29:01.991Z,71.83
2023-07-30T08:32:58.925Z,71.79
2023-07-30T08:36:24.227Z,70.05
2023-07-30T08:40:01.635Z,69.99
2023-07-30T08:43:39.563Z,69.20
2023-07-30T08:47:36.422Z,68.70
2023-07-30T08:51:22.352Z,67.95
2023-07-30T08:54:51.329Z,68.26
2023-07-30T08:58:28.197Z,68.88
2023-07-30T09:02:34.013Z,68.16
2023-07-30T09:05:59.183Z,68.04
2023-07-30T09:09:56.084Z,67.29
2023-07-30T09:13:24.756Z,66.68
2023-07-30T09:16:59.562Z,65.15
2023-07-30T09:20:40.712Z,64.29
2023-07-30T09:24:22.727Z,64.19
2023-07-30T09:28:10.769Z,63.48
2023-07-30T09:31:56.111Z,63.85
2023-07-30T09:35:40.146Z,63.81
2023-07-30T09:39:05.080Z,63.91
2023-07-30T09:42:49.218Z,63.02
2023-07-30T09:46:20.374Z,62.35
2023-07-30T09:49:58.025Z,62.61
2023-07-30T09:53:36.256Z,62.85
2023-07-30T09:57:13.240Z,62.86
2023-07-30T10:00:51.896Z,62.78
2023-07-30T10:04:50.537Z,61.99
2023-07-30T10:08:22.772Z,61.93
2023-07-30T10:12:25.166Z,62.07
2023-07-30T10:16:12.145Z,61.98
2023-07-30T10:19:37.349Z,61.82
2023-07-30T10:23:33.653Z,61.76
2023-07-30T10:27:06.894Z,62.32
2023-07-30T10:31:03.851Z,61.44
2023-07-30T10:34:47.953Z,60.16
2023-07-30T10:38:31.787Z,59.08
2023-07-30T10:42:01.831Z,58.87
2023-07-30T10:45:34.812Z,58.84
2023-07-30T10:49:13.306Z,59.29
2023-07-30T10:52:49.884Z,58.24
2023-07-30T10:56:46.819Z,58.34
2023-07-30T11:00:12.990Z,57.60
2023-07-30T11:04:15.772Z,57.85
2023-07-30T11:07:50.490Z,57.85
2023-07-30T11:11:42.979Z,58.45
2023-07-30T11:15:08.264Z,58.32
2023-07-30T11:18:47.693Z,58.16
2023-07-30T11:22:34.240Z,57.50
2023-07-30T11:26:20.478Z,57.30
2023-07-30T11:29:55.651Z,56.44
2023-07-30T11:33:23.610Z,56.08
2023-07-30T11:37:01.124Z,55.33
2023-07-30T11:40:58.195Z,55.51
2023-07-30T11:44:41.250Z,54.69
2023-07-30T11:48:26.325Z,54.90
2023-07-30T11:51:52.555Z,54.94
2023-07-30T11:55:39.373Z,54.85
2023-07-30T11:59:08.601Z,54.58
2023-07-30T12:02:44.465Z,55.26
2023-07-30T12:06:43.617Z,54.59
2023-07-30T12:10:27.358Z,55.11
2023-07-30T12:13:52.623Z,54.88
2023-07-30T12:17:30.145Z,55.06
2023-07-30T12:21:26.270Z,55.09
2023-07-30T12:24:50.951Z,55.30
2023-07-30T12:28:28.671Z,56.03
2023-07-30T12:32:28.491Z,56.01
2023-07-30T12:35:54.303Z,56.06
2023-07-30T12:39:30.855Z,56.05
2023-07-30T12:43:10.219Z,56.36
2023-07-30T12:46:46.105Z,56.33
2023-07-30T12:50:42.854Z,56.79
2023-07-30T12:54:26.300Z,57.19
2023-07-30T12:57:51.238Z,57.04
2023-07-30T13:01:29.179Z,56.88
2023-07-30T13:05:07.016Z,56.67
2023-07-30T13:08:44.297Z,56.05
2023-07-30T13:12:41.075Z,56.25
2023-07-30T13:16:24.763Z,55.00
2023-07-30T13:20:08.854Z,54.32
2023-07-30T13:23:34.045Z,54.29
2023-07-30T13:27:11.929Z,54.41
2023-07-30T13:30:52.012Z,54.24
2023-07-30T13:34:26.981Z,54.05
2023-07-30T13:38:25.829Z,53.20
2023-07-30T13:42:09.948Z,53.63
2023-07-30T13:45:35.073Z,53.66
2023-07-30T13:49:31.584Z,53.82
2023-07-30T13:53:15.869Z,53.84
2023-07-30T13:57:03.871Z,52.44
2023-07-30T14:00:48.115Z,50.95
2023-07-30T14:04:12.814Z,50.22
2023-07-30T14:08:09.437Z,49.55
2023-07-30T14:11:34.112Z,49.87
2023-07-30T14:15:32.076Z,49.96
2023-07-30T14:18:57.276Z,50.64
2023-07-30T14:22:54.581Z,50.40
2023-07-30T14:26:19.750Z,50.13
2023-07-30T14:29:57.577Z,50.95
2023-07-30T14:33:35.341Z,51.53
2023-07-30T14:37:32.235Z,51.67
2023-07-30T14:40:57.444Z,52.48
2023-07-30T14:44:35.990Z,53.08
2023-07-30T14:48:12.884Z,54.53
2023-07-30T14:52:09.484Z,56.52
2023-07-30T14:55:34.544Z,57.64
2023-07-30T14:59:12.203Z,57.81
2023-07-30T15:02:50.290Z,57.94
2023-07-30T15:06:32.660Z,57.98
2023-07-30T15:10:05.934Z,58.03
2023-07-30T15:14:01.823Z,57.69
2023-07-30T15:17:26.861Z,58.10
2023-07-30T15:21:04.877Z,58.15
2023-07-30T15:25:01.566Z,57.82
2023-07-30T15:28:26.886Z,57.58
2023-07-30T15:32:04.988Z,57.65
2023-07-30T15:35:41.990Z,58.01
2023-07-30T15:39:38.515Z,58.12
2023-07-30T15:43:04.640Z,58.09
2023-07-30T15:46:41.401Z,58.32
2023-07-30T15:50:18.877Z,58.60
2023-07-30T15:53:56.704Z,58.82
2023-07-30T15:57:34.292Z,59.16
2023-07-30T16:01:31.403Z,58.80
2023-07-30T16:04:56.292Z,58.19
2023-07-30T16:08:34.890Z,58.87
2023-07-30T16:12:13.712Z,59.83
2023-07-30T16:15:49.150Z,60.11
2023-07-30T16:19:26.972Z,60.41
2023-07-30T16:23:05.366Z,60.60
2023-07-30T16:26:42.892Z,60.72
2023-07-30T16:30:19.856Z,61.03
2023-07-30T16:33:57.580Z,61.15
2023-07-30T16:37:35.294Z,61.58
2023-07-30T16:41:12.917Z,62.49
2023-07-30T16:44:52.348Z,62.95
2023-07-30T16:48:28.259Z,63.43
2023-07-30T16:52:24.854Z,64.33
2023-07-30T16:55:49.754Z,65.48
2023-07-30T16:59:27.361Z,68.92
2023-07-30T17:03:08.121Z,73.41
2023-07-30T17:06:42.847Z,76.33
2023-07-30T17:10:40.568Z,81.09
2023-07-30T17:14:05.487Z,83.62
2023-07-30T17:18:02.579Z,83.76
2023-07-30T17:21:27.717Z,85.58
2023-07-30T17:25:05.850Z,88.59
2023-07-30T17:28:42.801Z,88.46
2023-07-30T17:32:20.755Z,87.54
2023-07-30T17:36:03.010Z,85.94
2023-07-30T17:39:37.100Z,85.18
2023-07-30T17:43:14.738Z,85.15
2023-07-30T17:46:51.243Z,84.41
2023-07-30T17:50:32.277Z,84.57
2023-07-30T17:54:06.681Z,84.63
2023-07-30T17:57:44.206Z,84.99
2023-07-30T18:01:40.876Z,85.58
2023-07-30T18:05:06.171Z,85.79
2023-07-30T18:09:03.679Z,86.25
2023-07-30T18:12:28.655Z,87.01
2023-07-30T18:16:24.982Z,87.73
2023-07-30T18:19:49.959Z,87.92
2023-07-30T18:23:27.756Z,88.18
2023-07-30T18:27:05.700Z,88.59
2023-07-30T18:30:43.060Z,89.79
2023-07-30T18:34:39.559Z,90.49
2023-07-30T18:38:05.224Z,90.61
2023-07-30T18:42:01.131Z,90.51
2023-07-30T18:45:48.079Z,90.90
2023-07-30T18:49:32.603Z,91.24
2023-07-30T18:52:57.557Z,91.49
2023-07-30T18:56:35.044Z,91.90
2023-07-30T19:00:13.496Z,91.61
2023-07-30T19:04:09.458Z,92.43
2023-07-30T19:07:53.574Z,93.18
2023-07-30T19:11:37.565Z,93.69
2023-07-30T19:15:22.537Z,93.84
2023-07-30T19:18:47.187Z,93.01
2023-07-30T19:22:24.982Z,94.13
2023-07-30T19:26:02.709Z,93.59
2023-07-30T19:29:40.188Z,94.15
2023-07-30T19:33:39.478Z,95.28
2023-07-30T19:37:04.751Z,95.43
2023-07-30T19:40:41.934Z,96.08
2023-07-30T19:44:38.983Z,95.76
2023-07-30T19:48:23.858Z,95.85
2023-07-30T19:52:08.467Z,96.91
2023-07-30T19:55:52.042Z,97.80
2023-07-30T19:59:35.675Z,98.51
2023-07-30T20:03:19.908Z,99.23
2023-07-30T20:06:45.192Z,99.26
2023-07-30T20:10:22.578Z,99.32
2023-07-30T20:14:00.396Z,99.27
2023-07-30T20:17:39.977Z,99.53
2023-07-30T20:21:34.579Z,99.68
2023-07-30T20:24:59.329Z,99.74
2023-07-30T20:28:36.991Z,100.00
2023-07-30T20:32:33.524Z,100.00
2023-07-30T20:35:58.450Z,100.00
2023-07-30T20:39:56.707Z,100.00
2023-07-30T20:43:42.292Z,100.00
2023-07-30T20:47:25.893Z,100.00
2023-07-30T20:51:10.677Z,100.00
2023-07-30T20:54:55.679Z,100.00
2023-07-30T20:58:22.604Z,100.00
2023-07-30T21:02:17.225Z,100.00
2023-07-30T21:05:42.703Z,100.00
2023-07-30T21:09:39.130Z,100.00
2023-07-30T21:13:23.015Z,100.00
2023-07-30T21:16:47.831Z,100.00
2023-07-30T21:20:25.668Z,100.00
2023-07-30T21:24:21.982Z,100.00
2023-07-30T21:28:06.888Z,100.00
2023-07-30T21:31:50.488Z,100.00
2023-07-30T21:35:34.130Z,100.00
2023-07-30T21:38:59.232Z,100.00
2023-07-30T21:42:36.906Z,100.00
2023-07-30T21:46:33.583Z,100.00
2023-07-30T21:50:17.366Z,100.00
2023-07-30T21:54:01.489Z,100.00
2023-07-30T21:57:46.867Z,100.00
2023-07-30T22:01:30.627Z,100.00
2023-07-30T22:04:55.779Z,100.00
2023-07-30T22:08:52.122Z,100.00
2023-07-30T22:12:35.929Z,100.00
2023-07-30T22:16:20.171Z,100.00
2023-07-30T22:19:44.815Z,100.00
2023-07-30T22:23:22.440Z,100.00
2023-07-30T22:27:19.166Z,100.00
2023-07-30T22:31:02.943Z,100.00
2023-07-30T22:34:46.408Z,100.00
2023-07-30T22:38:11.690Z,100.00
2023-07-30T22:41:49.146Z,100.00
2023-07-30T22:45:26.771Z,100.00
2023-07-30T22:49:23.579Z,100.00
2023-07-30T22:52:48.362Z,100.00
2023-07-30T22:56:26.105Z,100.00
2023-07-30T23:00:05.895Z,100.00
2023-07-30T23:03:42.470Z,100.00
2023-07-30T23:07:38.068Z,100.00
2023-07-30T23:11:21.483Z,100.00
2023-07-30T23:14:46.658Z,100.00
2023-07-30T23:18:24.851Z,100.00
2023-07-30T23:22:04.875Z,100.00
2023-07-30T23:25:39.603Z,100.00
2023-07-30T23:29:17.235Z,100.00
2023-07-30T23:32:55.179Z,100.00
2023-07-30T23:36:32.627Z,100.00
2023-07-30T23:40:29.246Z,100.00
2023-07-30T23:44:12.912Z,100.00
2023-07-30T23:47:37.744Z,100.00
2023-07-30T23:51:15.590Z,100.00
2023-07-30T23:55:11.976Z,100.00
2023-07-30T23:58:36.816Z,100.00
